Columbia — WDD6400 — position and weather

sailwx.info

Track history (hours):
 
Tides and Currents Weather Stations Pressure Air Temp Water Temp Dewpoint Dewpoint Depression Visibility Wind Speed Wind Dir Waves Ship Positions

Columbia

Owner: OSG Ship Management Inc., Tampa, FL. More information available from US FCC via Universal Licensing System and Coast Guard Vessel Documentation Center.

Last reported at 2017-Jul-26 06:26 UTC. Time now 2017-Oct-19 00:13 UTC.
Position N 27°46' W 082°31'.
Warning: this ship's position is months out of date.

Length 194 m; draft 5.9 m.

Type: Towing. MMSI: 367172440.

Date/timePositionNaut miles runAvg speedWind from/ knotsBaromVisibWave heightAir tempDewpointWater temp
2017-Jul-26 06:26N 27°46' W 082°31'3 7.6
2017-Jul-26 06:00N 27°48' W 082°34'4 8.0
2017-Jul-26 05:30N 27°51' W 082°33'0 0.8
2017-Jul-26 05:00N 27°52' W 082°33'0 0.0
2017-Jul-26 04:30N 27°52' W 082°33'0 0.0
2017-Jul-26 04:00N 27°52' W 082°33'0 0.2
2017-Jul-26 03:30N 27°52' W 082°33'0 0.0
2017-Jul-26 03:00N 27°52' W 082°33'0 0.0
2017-Jul-26 02:30N 27°52' W 082°33'0 0.0
2017-Jul-26 02:00N 27°52' W 082°33'0 0.0
2017-Jul-26 01:30N 27°52' W 082°33'0 0.0
2017-Jul-26 01:00N 27°52' W 082°33'0 0.0
2017-Jul-26 00:30N 27°52' W 082°33'0 0.0
2017-Jul-26 00:00N 27°52' W 082°33'0 0.0
2017-Jul-25 23:30N 27°52' W 082°33'0 0.0
2017-Jul-25 23:00N 27°52' W 082°33'0 0.0
2017-Jul-25 22:30N 27°52' W 082°33'0 0.0
2017-Jul-25 22:00N 27°52' W 082°33'0 0.0
2017-Jul-25 21:30N 27°52' W 082°33'0 0.0
2017-Jul-25 21:00N 27°52' W 082°33'0 0.0
2017-Jul-25 20:30N 27°52' W 082°33'0 0.0
2017-Jul-25 20:00N 27°52' W 082°33'0 0.0
2017-Jul-25 19:30N 27°52' W 082°33'0 0.0
2017-Jul-25 19:00N 27°52' W 082°33'0 0.0
2017-Jul-25 18:30N 27°52' W 082°33'0 0.0
2017-Jul-25 18:00N 27°52' W 082°33'0 0.0
2017-Jul-25 17:30N 27°52' W 082°33'0 0.0
2017-Jul-25 17:00N 27°52' W 082°33'0 0.0
2017-Jul-25 16:30N 27°52' W 082°33'0 0.0
2017-Jul-25 16:00N 27°52' W 082°33'0 0.0
2017-Jul-25 15:30N 27°52' W 082°33'0 0.0
2017-Jul-25 15:00N 27°52' W 082°33'0 0.0
2017-Jul-25 14:00N 27°52' W 082°33'0 0.0
2017-Jul-25 13:30N 27°52' W 082°33'0 0.0
2017-Jul-25 13:00N 27°52' W 082°33'0 0.0
2017-Jul-25 12:30N 27°52' W 082°33'0 0.0
2017-Jul-25 12:00N 27°52' W 082°33'0 0.0
2017-Jul-25 11:30N 27°52' W 082°33'0 0.0
2017-Jul-25 11:00N 27°52' W 082°33'0 0.0
2017-Jul-25 10:30N 27°52' W 082°33'0 0.0
2017-Jul-25 10:00N 27°52' W 082°33'0 0.0
2017-Jul-25 09:30N 27°52' W 082°33'0 0.0
2017-Jul-25 09:00N 27°52' W 082°33'0 0.0
2017-Jul-25 08:30N 27°52' W 082°33'0 0.0
2017-Jul-25 08:00N 27°52' W 082°33'0 0.0
2017-Jul-25 07:30N 27°52' W 082°33'0 0.0
2017-Jul-25 07:00N 27°52' W 082°33'0 0.0
2017-Jul-25 06:30N 27°52' W 082°33'0 0.0
2017-Jul-25 06:00N 27°52' W 082°33'0 0.3
2017-Jul-25 05:30N 27°52' W 082°33'0 0.0
2017-Jul-25 05:00N 27°52' W 082°33'0 0.7
2017-Jul-25 04:30N 27°51' W 082°33'2 3.8
2017-Jul-25 04:00N 27°50' W 082°34'3 5.7
2017-Jul-25 03:28N 27°47' W 082°32'3 7.3
2017-Jul-25 03:00N 27°44' W 082°32'  
2017-Jul-16 14:23N 27°45' W 082°31'3 7.6
2017-Jul-16 14:00N 27°47' W 082°34'4 8.5
2017-Jul-16 13:30N 27°52' W 082°33'0 0.6
2017-Jul-16 13:00N 27°52' W 082°33'0 0.0
2017-Jul-16 12:29N 27°52' W 082°33'0 0.0
2017-Jul-16 11:59N 27°52' W 082°33'0 0.0
2017-Jul-16 11:29N 27°52' W 082°33'0 0.0
2017-Jul-16 10:59N 27°52' W 082°33'0 0.0
2017-Jul-16 10:29N 27°52' W 082°33'0 0.0
2017-Jul-16 09:59N 27°52' W 082°33'0 0.0
2017-Jul-16 09:29N 27°52' W 082°33'0 0.0
2017-Jul-16 08:59N 27°52' W 082°33'0 0.0
2017-Jul-16 08:29N 27°52' W 082°33'0 0.0
2017-Jul-16 07:59N 27°52' W 082°33'0 0.0
2017-Jul-16 07:29N 27°52' W 082°33'0 0.0
2017-Jul-16 06:59N 27°52' W 082°33'0 0.0
2017-Jul-16 06:29N 27°52' W 082°33'  
Track history (hours):
 
Tides and Currents Weather Stations Pressure Air Temp Water Temp Dewpoint Dewpoint Depression Visibility Wind Speed Wind Dir Waves Ship Positions

Columbia

Owner: OSG Ship Management Inc., Tampa, FL. More information available from US FCC via Universal Licensing System and Coast Guard Vessel Documentation Center.

Last reported at 2017-Jul-26 06:26 UTC. Time now 2017-Oct-19 00:13 UTC.
Position N 27°46' W 082°31'.
Warning: this ship's position is months out of date.

Length 194 m; draft 5.9 m.

Type: Towing. MMSI: 367172440.

Date/timePositionNaut miles runAvg speedWind from/ knotsBaromVisibWave heightAir tempDewpointWater temp
2017-Jul-26 06:26N 27°46' W 082°31'3 7.6
2017-Jul-26 06:00N 27°48' W 082°34'4 8.0
2017-Jul-26 05:30N 27°51' W 082°33'0 0.8
2017-Jul-26 05:00N 27°52' W 082°33'0 0.0
2017-Jul-26 04:30N 27°52' W 082°33'0 0.0
2017-Jul-26 04:00N 27°52' W 082°33'0 0.2
2017-Jul-26 03:30N 27°52' W 082°33'0 0.0
2017-Jul-26 03:00N 27°52' W 082°33'0 0.0
2017-Jul-26 02:30N 27°52' W 082°33'0 0.0
2017-Jul-26 02:00N 27°52' W 082°33'0 0.0
2017-Jul-26 01:30N 27°52' W 082°33'0 0.0
2017-Jul-26 01:00N 27°52' W 082°33'0 0.0
2017-Jul-26 00:30N 27°52' W 082°33'0 0.0
2017-Jul-26 00:00N 27°52' W 082°33'0 0.0
2017-Jul-25 23:30N 27°52' W 082°33'0 0.0
2017-Jul-25 23:00N 27°52' W 082°33'0 0.0
2017-Jul-25 22:30N 27°52' W 082°33'0 0.0
2017-Jul-25 22:00N 27°52' W 082°33'0 0.0
2017-Jul-25 21:30N 27°52' W 082°33'0 0.0
2017-Jul-25 21:00N 27°52' W 082°33'0 0.0
2017-Jul-25 20:30N 27°52' W 082°33'0 0.0
2017-Jul-25 20:00N 27°52' W 082°33'0 0.0
2017-Jul-25 19:30N 27°52' W 082°33'0 0.0
2017-Jul-25 19:00N 27°52' W 082°33'0 0.0
2017-Jul-25 18:30N 27°52' W 082°33'0 0.0
2017-Jul-25 18:00N 27°52' W 082°33'0 0.0
2017-Jul-25 17:30N 27°52' W 082°33'0 0.0
2017-Jul-25 17:00N 27°52' W 082°33'0 0.0
2017-Jul-25 16:30N 27°52' W 082°33'0 0.0
2017-Jul-25 16:00N 27°52' W 082°33'0 0.0
2017-Jul-25 15:30N 27°52' W 082°33'0 0.0
2017-Jul-25 15:00N 27°52' W 082°33'0 0.0
2017-Jul-25 14:00N 27°52' W 082°33'0 0.0
2017-Jul-25 13:30N 27°52' W 082°33'0 0.0
2017-Jul-25 13:00N 27°52' W 082°33'0 0.0
2017-Jul-25 12:30N 27°52' W 082°33'0 0.0
2017-Jul-25 12:00N 27°52' W 082°33'0 0.0
2017-Jul-25 11:30N 27°52' W 082°33'0 0.0
2017-Jul-25 11:00N 27°52' W 082°33'0 0.0
2017-Jul-25 10:30N 27°52' W 082°33'0 0.0
2017-Jul-25 10:00N 27°52' W 082°33'0 0.0
2017-Jul-25 09:30N 27°52' W 082°33'0 0.0
2017-Jul-25 09:00N 27°52' W 082°33'0 0.0
2017-Jul-25 08:30N 27°52' W 082°33'0 0.0
2017-Jul-25 08:00N 27°52' W 082°33'0 0.0
2017-Jul-25 07:30N 27°52' W 082°33'0 0.0
2017-Jul-25 07:00N 27°52' W 082°33'0 0.0
2017-Jul-25 06:30N 27°52' W 082°33'0 0.0
2017-Jul-25 06:00N 27°52' W 082°33'0 0.3
2017-Jul-25 05:30N 27°52' W 082°33'0 0.0
2017-Jul-25 05:00N 27°52' W 082°33'0 0.7
2017-Jul-25 04:30N 27°51' W 082°33'2 3.8
2017-Jul-25 04:00N 27°50' W 082°34'3 5.7
2017-Jul-25 03:28N 27°47' W 082°32'3 7.3
2017-Jul-25 03:00N 27°44' W 082°32'  
2017-Jul-16 14:23N 27°45' W 082°31'3 7.6
2017-Jul-16 14:00N 27°47' W 082°34'4 8.5
2017-Jul-16 13:30N 27°52' W 082°33'0 0.6
2017-Jul-16 13:00N 27°52' W 082°33'0 0.0
2017-Jul-16 12:29N 27°52' W 082°33'0 0.0
2017-Jul-16 11:59N 27°52' W 082°33'0 0.0
2017-Jul-16 11:29N 27°52' W 082°33'0 0.0
2017-Jul-16 10:59N 27°52' W 082°33'0 0.0
2017-Jul-16 10:29N 27°52' W 082°33'0 0.0
2017-Jul-16 09:59N 27°52' W 082°33'0 0.0
2017-Jul-16 09:29N 27°52' W 082°33'0 0.0
2017-Jul-16 08:59N 27°52' W 082°33'0 0.0
2017-Jul-16 08:29N 27°52' W 082°33'0 0.0
2017-Jul-16 07:59N 27°52' W 082°33'0 0.0
2017-Jul-16 07:29N 27°52' W 082°33'0 0.0
2017-Jul-16 06:59N 27°52' W 082°33'0 0.0
2017-Jul-16 06:29N 27°52' W 082°33'  

Dump ship's entire track history